createdAt,value
2023-01-18T00:01:41.638Z,7.82
2023-01-18T00:16:43.050Z,9.32
2023-01-18T00:31:44.502Z,8.68
2023-01-18T00:46:46.112Z,9.02
2023-01-18T01:01:48.073Z,11.07
2023-01-18T01:17:08.381Z,9.20
2023-01-18T01:32:09.772Z,8.27
2023-01-18T01:47:11.161Z,8.70
2023-01-18T02:02:12.721Z,8.80
2023-01-18T02:17:14.166Z,9.10
2023-01-18T02:32:16.262Z,8.02
2023-01-18T02:47:17.663Z,9.45
2023-01-18T03:02:19.131Z,12.93
2023-01-18T03:17:20.627Z,11.15
2023-01-18T03:32:41.057Z,11.30
2023-01-18T03:47:42.582Z,12.40
2023-01-18T04:02:44.212Z,11.15
2023-01-18T04:17:45.628Z,12.35
2023-01-18T04:32:47.121Z,12.40
2023-01-18T04:47:48.693Z,13.15
2023-01-18T05:02:50.079Z,13.68
2023-01-18T05:17:51.512Z,12.95
2023-01-18T05:32:52.928Z,12.82
2023-01-18T05:47:54.409Z,11.73
2023-01-18T06:02:56.285Z,11.10
2023-01-18T06:17:59.368Z,8.15
2023-01-18T06:33:06.183Z,7.10
2023-01-18T06:48:07.743Z,5.82
2023-01-18T07:03:10.644Z,5.55
2023-01-18T07:18:12.089Z,5.32
2023-01-18T07:33:13.708Z,4.68
2023-01-18T07:48:15.198Z,4.47
2023-01-18T08:03:16.652Z,4.15
2023-01-18T08:18:18.045Z,3.50
2023-01-18T08:33:19.501Z,4.03
2023-01-18T08:48:20.914Z,3.10
2023-01-18T09:03:22.458Z,3.15
2023-01-18T09:18:24.036Z,3.63
2023-01-18T09:33:36.798Z,4.10
2023-01-18T09:48:39.656Z,5.03
2023-01-18T10:03:42.035Z,5.18
2023-01-18T10:18:45.955Z,5.00
2023-01-18T10:33:48.439Z,5.75
2023-01-18T10:48:49.937Z,4.35
2023-01-18T11:03:51.343Z,4.38
2023-01-18T11:18:52.890Z,4.30
2023-01-18T11:33:54.383Z,5.22
2023-01-18T11:48:56.784Z,5.10
2023-01-18T12:03:58.270Z,4.47
2023-01-18T12:19:00.746Z,5.40
2023-01-18T12:34:02.151Z,5.00
2023-01-18T12:49:03.802Z,5.22
2023-01-18T13:04:05.411Z,5.72
2023-01-18T13:19:06.876Z,6.45
2023-01-18T13:34:08.267Z,5.72
2023-01-18T13:49:09.842Z,6.30
2023-01-18T14:04:11.635Z,6.25
2023-01-18T14:19:13.022Z,6.38
2023-01-18T14:34:14.393Z,6.82
2023-01-18T14:49:15.805Z,6.32
2023-01-18T15:04:17.745Z,6.05
2023-01-18T15:19:19.156Z,5.90
2023-01-18T15:34:20.518Z,4.97
2023-01-18T15:49:22.882Z,7.30
2023-01-18T16:04:24.299Z,5.30
2023-01-18T16:19:26.969Z,5.65
2023-01-18T16:34:28.422Z,5.97
2023-01-18T16:49:29.789Z,6.60
2023-01-18T17:04:31.451Z,6.10
2023-01-18T17:19:33.343Z,5.70
2023-01-18T17:34:34.759Z,13.35
2023-01-18T17:49:36.158Z,9.50
2023-01-18T18:04:37.777Z,23.65
2023-01-18T18:19:39.140Z,9.60
2023-01-18T18:34:40.537Z,10.25
2023-01-18T18:49:42.021Z,9.68
2023-01-18T19:04:43.408Z,9.35
2023-01-18T19:19:44.843Z,9.77
2023-01-18T19:34:46.516Z,9.48
2023-01-18T19:49:47.925Z,8.52
2023-01-18T20:04:49.356Z,8.30
2023-01-18T20:19:53.977Z,8.10
2023-01-18T20:34:55.400Z,8.43
2023-01-18T20:49:56.797Z,11.48
2023-01-18T21:04:58.236Z,9.07
2023-01-18T21:19:59.637Z,10.70
2023-01-18T21:35:01.007Z,7.28
2023-01-18T21:50:20.983Z,7.97
2023-01-18T22:05:22.386Z,8.82
2023-01-18T22:20:23.978Z,8.48
2023-01-18T22:35:25.366Z,9.18
2023-01-18T22:50:26.735Z,7.35
2023-01-18T23:05:28.132Z,7.93
2023-01-18T23:20:29.499Z,7.57
2023-01-18T23:35:30.938Z,10.95
2023-01-18T23:50:51.171Z,7.65
